Terminal Aerodrome Forecast
Issued by NWS Grand Forks, ND

Home | Current Version | Previous Version | Graphics & Text | Print | Product List | Glossary On
Versions: 1 2 3 4 5 6 7 8 9 10 11 12 13 14 15 16 17 18 19 20 21 22
000
FTUS43 KFGF 011700
TAFGFK
TAF
KGFK 011721Z 0118/0218 28006KT P6SM SCT250
     FM012100 30009KT P6SM VCSH BKN050
     FM020100 24006KT P6SM SCT060=

USA.gov is the U.S. government's official web portal to all federal, state and local government web resources and services.